createdAt,value
2017-05-24T00:00:11.056Z,101048
2017-05-24T00:01:11.082Z,101050
2017-05-24T00:02:10.599Z,101047
2017-05-24T00:03:11.368Z,101044
2017-05-24T00:04:11.379Z,101034
2017-05-24T00:05:11.322Z,101046
2017-05-24T00:06:11.330Z,101040
2017-05-24T00:07:11.381Z,101042
2017-05-24T00:08:10.960Z,101042
2017-05-24T00:09:11.697Z,101027
2017-05-24T00:10:11.532Z,101034
2017-05-24T00:11:11.610Z,101035
2017-05-24T00:12:11.668Z,101033
2017-05-24T00:13:11.171Z,101036
2017-05-24T00:14:11.180Z,101031
2017-05-24T00:15:11.486Z,101034
2017-05-24T00:16:11.325Z,101032
2017-05-24T00:17:11.921Z,101034
2017-05-24T00:18:11.448Z,101027
2017-05-24T00:19:11.540Z,101039
2017-05-24T00:20:12.158Z,101032
2017-05-24T00:21:12.384Z,101038
2017-05-24T00:22:11.759Z,101031
2017-05-24T00:23:11.735Z,101033
2017-05-24T00:24:11.811Z,101034
2017-05-24T00:25:12.365Z,101037
2017-05-24T00:26:11.925Z,101036
2017-05-24T00:27:12.678Z,101036
2017-05-24T00:28:12.513Z,101038
2017-05-24T00:29:12.548Z,101038
2017-05-24T00:30:12.085Z,101032
2017-05-24T00:31:12.063Z,101034
2017-05-24T00:32:12.197Z,101037
2017-05-24T00:33:12.420Z,101035
2017-05-24T00:34:12.354Z,101038
2017-05-24T00:35:12.443Z,101037
2017-05-24T00:36:12.413Z,101036
2017-05-24T00:37:13.005Z,101038
2017-05-24T00:38:13.059Z,101035
2017-05-24T00:39:13.399Z,101034
2017-05-24T00:40:13.147Z,101033
2017-05-24T00:41:12.706Z,101028
2017-05-24T00:42:13.197Z,101033
2017-05-24T00:43:13.242Z,101026
2017-05-24T00:44:13.371Z,101032
2017-05-24T00:45:13.581Z,101031
2017-05-24T00:46:13.529Z,101030
2017-05-24T00:47:13.620Z,101029
2017-05-24T00:48:13.688Z,101032
2017-05-24T00:49:13.242Z,101026
2017-05-24T00:50:13.870Z,101027
2017-05-24T00:51:14.095Z,101024
2017-05-24T00:52:13.473Z,101026
2017-05-24T00:53:13.509Z,101027
2017-05-24T00:54:13.608Z,101021
2017-05-24T00:55:14.143Z,101030
2017-05-24T00:56:13.702Z,101031
2017-05-24T00:57:14.377Z,101031
2017-05-24T00:58:14.269Z,101028
2017-05-24T00:59:13.804Z,101035
2017-05-24T01:00:14.426Z,101029
2017-05-24T01:01:13.931Z,101031
2017-05-24T01:02:13.946Z,101025
2017-05-24T01:03:14.775Z,101028
2017-05-24T01:05:14.107Z,101026
2017-05-24T01:06:14.695Z,101026
2017-05-24T01:07:14.203Z,101025
2017-05-24T01:08:14.210Z,101025
2017-05-24T01:09:14.427Z,101025
2017-05-24T01:10:14.826Z,101024
2017-05-24T01:11:14.919Z,101021
2017-05-24T01:12:14.975Z,101021
2017-05-24T01:13:14.531Z,101020
2017-05-24T01:14:14.513Z,101019
2017-05-24T01:15:15.279Z,101010
2017-05-24T01:16:15.237Z,101019
2017-05-24T01:17:14.772Z,101021
2017-05-24T01:18:15.349Z,101021
2017-05-24T01:19:15.431Z,101021
2017-05-24T01:20:15.138Z,101018
2017-05-24T01:21:15.558Z,101018
2017-05-24T01:22:15.040Z,101011
2017-05-24T01:23:15.078Z,101013
2017-05-24T01:24:15.183Z,101017
2017-05-24T01:25:15.745Z,101016
2017-05-24T01:26:15.998Z,101012
2017-05-24T01:27:15.360Z,101006
2017-05-24T01:28:15.924Z,101014
2017-05-24T01:29:15.365Z,101011
2017-05-24T01:30:15.431Z,101012
2017-05-24T01:31:15.980Z,101012
2017-05-24T01:32:15.673Z,101013
2017-05-24T01:33:37.212Z,101016
2017-05-24T01:34:37.784Z,101008
2017-05-24T01:35:37.853Z,101005
2017-05-24T01:36:37.922Z,101003
2017-05-24T01:37:38.135Z,100992
2017-05-24T01:38:37.422Z,100999
2017-05-24T01:39:37.459Z,101000
2017-05-24T01:40:37.520Z,101006
2017-05-24T01:41:37.596Z,101003
2017-05-24T01:42:37.561Z,100996
2017-05-24T01:43:37.926Z,101004
2017-05-24T01:44:38.236Z,100998
2017-05-24T01:45:38.275Z,100996
2017-05-24T01:46:38.324Z,101004
2017-05-24T01:47:38.445Z,101005
2017-05-24T01:48:38.416Z,101003
2017-05-24T01:49:38.672Z,101010
2017-05-24T01:50:38.089Z,101011
2017-05-24T01:51:38.125Z,101008
2017-05-24T01:52:38.190Z,101010
2017-05-24T01:53:38.245Z,101011
2017-05-24T01:54:38.200Z,101016
2017-05-24T01:55:38.514Z,101016
2017-05-24T01:56:38.901Z,101008
2017-05-24T01:57:38.420Z,101004
2017-05-24T01:58:38.920Z,101015
2017-05-24T01:59:38.446Z,101018
2017-05-24T02:00:39.024Z,101017
2017-05-24T02:01:39.191Z,101016
2017-05-24T02:02:39.124Z,101018
2017-05-24T02:03:39.224Z,101016
2017-05-24T02:04:39.264Z,101019
2017-05-24T02:05:38.734Z,101015
2017-05-24T02:06:38.981Z,101011
2017-05-24T02:07:39.401Z,101007
2017-05-24T02:08:39.467Z,101017
2017-05-24T02:09:39.492Z,101020
2017-05-24T02:10:39.027Z,101022
2017-05-24T02:11:39.625Z,101018
2017-05-24T02:12:39.321Z,101016
2017-05-24T02:13:39.753Z,101010
2017-05-24T02:14:39.240Z,101017
2017-05-24T02:15:39.303Z,101017
2017-05-24T02:16:39.336Z,101021
2017-05-24T02:17:39.391Z,101013
2017-05-24T02:18:40.146Z,101023
2017-05-24T02:19:40.023Z,101018
2017-05-24T02:20:40.110Z,101025
2017-05-24T02:21:40.163Z,101025
2017-05-24T02:22:39.688Z,101024
2017-05-24T02:23:40.306Z,101021
2017-05-24T02:24:40.621Z,101024
2017-05-24T02:25:39.899Z,101027
2017-05-24T02:26:40.478Z,101029
2017-05-24T02:27:40.544Z,101030
2017-05-24T02:28:40.619Z,101034
2017-05-24T02:29:40.104Z,101033
2017-05-24T02:30:40.902Z,101034
2017-05-24T02:31:40.769Z,101027
2017-05-24T02:32:40.784Z,101029
2017-05-24T02:33:40.794Z,101032
2017-05-24T02:34:40.795Z,101033
2017-05-24T02:35:40.322Z,101033
2017-05-24T02:36:40.556Z,101028
2017-05-24T02:37:40.390Z,101028
2017-05-24T02:38:40.990Z,101026
2017-05-24T02:39:40.552Z,101019
2017-05-24T02:40:40.570Z,101028
2017-05-24T02:41:40.613Z,101024
2017-05-24T02:42:41.469Z,101021
2017-05-24T02:43:41.258Z,101026
2017-05-24T02:44:41.314Z,101018
2017-05-24T02:45:41.356Z,101027
2017-05-24T02:46:40.818Z,101026
2017-05-24T02:47:41.466Z,101024
2017-05-24T02:48:41.225Z,101019
2017-05-24T02:49:41.135Z,101026
2017-05-24T02:50:41.629Z,101018
2017-05-24T02:51:41.127Z,101017
2017-05-24T02:52:41.231Z,101017
2017-05-24T02:53:41.811Z,101017
2017-05-24T02:54:42.032Z,101013
2017-05-24T02:55:41.358Z,101011
2017-05-24T02:56:41.983Z,101011
2017-05-24T02:57:41.422Z,101008
2017-05-24T02:58:42.015Z,101013
2017-05-24T02:59:41.572Z,101016
2017-05-24T03:00:42.336Z,101014
2017-05-24T03:01:41.667Z,101008
2017-05-24T03:02:42.227Z,101015
2017-05-24T03:03:42.272Z,101011
2017-05-24T03:04:42.334Z,101017
2017-05-24T03:05:41.802Z,101013
2017-05-24T03:06:42.060Z,101022
2017-05-24T03:07:42.497Z,101017
2017-05-24T03:08:41.905Z,101027
2017-05-24T03:09:42.537Z,101027
2017-05-24T03:10:42.610Z,101029
2017-05-24T03:11:42.680Z,101032
2017-05-24T03:12:42.873Z,101030
2017-05-24T03:13:42.231Z,101032
2017-05-24T03:14:42.223Z,101027
2017-05-24T03:15:42.252Z,101031
2017-05-24T03:16:42.335Z,101032
2017-05-24T03:17:42.930Z,101036
2017-05-24T03:18:42.634Z,101037
2017-05-24T03:19:43.064Z,101041
2017-05-24T03:20:42.609Z,101045
2017-05-24T03:21:42.579Z,101043
2017-05-24T03:22:42.699Z,101040
2017-05-24T03:23:42.724Z,101045
2017-05-24T03:24:42.877Z,101042
2017-05-24T03:25:43.259Z,101032
2017-05-24T03:26:42.727Z,101039
2017-05-24T03:27:42.813Z,101036
2017-05-24T03:28:42.809Z,101042
2017-05-24T03:29:43.438Z,101041
2017-05-24T03:30:43.098Z,101036
2017-05-24T03:31:43.014Z,101038
2017-05-24T03:32:43.019Z,101035
2017-05-24T03:33:43.550Z,101025
2017-05-24T03:34:43.581Z,101029
2017-05-24T03:35:43.655Z,101026
2017-05-24T03:36:43.310Z,101015
2017-05-24T03:37:43.193Z,101024
2017-05-24T03:38:43.799Z,101022
2017-05-24T03:39:43.839Z,101012
2017-05-24T03:40:43.840Z,101027
2017-05-24T03:41:43.900Z,101023
2017-05-24T03:42:44.155Z,101020
2017-05-24T03:43:43.371Z,101027
2017-05-24T03:44:43.378Z,101026
2017-05-24T03:45:43.479Z,101025
2017-05-24T03:46:43.509Z,101022
2017-05-24T03:47:43.657Z,101020
2017-05-24T03:48:44.375Z,101017
2017-05-24T03:49:43.749Z,101018
2017-05-24T03:50:44.373Z,101022
2017-05-24T03:51:44.426Z,101025
2017-05-24T03:52:44.418Z,101021
2017-05-24T03:53:43.911Z,101012
2017-05-24T03:54:44.157Z,101021
2017-05-24T03:55:44.567Z,101022
2017-05-24T03:56:44.037Z,101023
2017-05-24T03:57:44.138Z,101024
2017-05-24T03:58:44.771Z,101027
2017-05-24T03:59:44.791Z,101034
2017-05-24T04:00:45.051Z,101032
2017-05-24T04:01:44.415Z,101033
2017-05-24T04:02:44.451Z,101040
2017-05-24T04:03:44.600Z,101032
2017-05-24T04:04:45.206Z,101028
2017-05-24T04:05:44.762Z,101031
2017-05-24T04:06:45.619Z,101027
2017-05-24T04:07:45.376Z,101039
2017-05-24T04:08:45.462Z,101042
2017-05-24T04:09:45.036Z,101039
2017-05-24T04:10:44.988Z,101035
2017-05-24T04:11:45.648Z,101037
2017-05-24T04:12:45.842Z,101040
2017-05-24T04:13:45.188Z,101034
2017-05-24T04:14:45.802Z,101037
2017-05-24T04:15:45.284Z,101033
2017-05-24T04:16:45.946Z,101030
2017-05-24T04:17:45.469Z,101034
2017-05-24T04:18:45.647Z,101035
2017-05-24T04:19:46.088Z,101041
2017-05-24T04:20:45.559Z,101043
2017-05-24T04:21:46.117Z,101047
2017-05-24T04:22:45.661Z,101046
2017-05-24T04:23:45.703Z,101041
2017-05-24T04:24:46.456Z,101039
2017-05-24T04:25:45.762Z,101044
2017-05-24T04:26:45.765Z,101045
2017-05-24T04:27:45.839Z,101046
2017-05-24T04:28:45.903Z,101042
2017-05-24T04:29:46.531Z,101048
2017-05-24T04:30:46.783Z,101047
2017-05-24T04:31:46.675Z,101053
2017-05-24T04:32:46.206Z,101053
2017-05-24T04:33:46.749Z,101057
2017-05-24T04:34:46.238Z,101056
2017-05-24T04:35:46.882Z,101058
2017-05-24T04:36:46.650Z,101056
2017-05-24T04:37:46.369Z,101055
2017-05-24T04:38:47.004Z,101057
2017-05-24T04:39:47.000Z,101046
2017-05-24T04:40:46.481Z,101059
2017-05-24T04:41:47.161Z,101059
2017-05-24T04:42:46.775Z,101051
2017-05-24T04:43:47.227Z,101053
2017-05-24T04:44:46.785Z,101053
2017-05-24T04:45:46.908Z,101057
2017-05-24T04:46:47.418Z,101046
2017-05-24T04:47:46.995Z,101051
2017-05-24T04:48:47.313Z,101052
2017-05-24T04:49:47.699Z,101052
2017-05-24T04:50:47.617Z,101044
2017-05-24T04:51:47.129Z,101053
2017-05-24T04:52:47.139Z,101055
2017-05-24T04:53:47.235Z,101053
2017-05-24T04:54:48.131Z,101047
2017-05-24T04:55:47.425Z,101058
2017-05-24T04:56:47.484Z,101068
2017-05-24T04:57:47.456Z,101068
2017-05-24T04:58:48.115Z,101069
2017-05-24T04:59:48.134Z,101065
2017-05-24T05:00:47.821Z,101072
2017-05-24T05:01:47.713Z,101067
2017-05-24T05:02:48.278Z,101063
2017-05-24T05:03:48.365Z,101076
2017-05-24T05:04:47.845Z,101071
2017-05-24T05:05:47.923Z,101078
2017-05-24T05:06:48.144Z,101078
2017-05-24T05:07:48.476Z,101079
2017-05-24T05:08:48.617Z,101079
2017-05-24T05:09:48.127Z,101075
2017-05-24T05:10:48.644Z,101074
2017-05-24T05:11:48.181Z,101077
2017-05-24T05:12:48.503Z,101080
2017-05-24T05:13:48.857Z,101083
2017-05-24T05:14:48.924Z,101086
2017-05-24T05:15:48.897Z,101084
2017-05-24T05:16:48.494Z,101088
2017-05-24T05:17:49.018Z,101079
2017-05-24T05:18:49.220Z,101090
2017-05-24T05:19:48.607Z,101087
2017-05-24T05:20:49.144Z,101087
2017-05-24T05:21:49.109Z,101089
2017-05-24T05:22:48.650Z,101090
2017-05-24T05:23:49.262Z,101076
2017-05-24T05:24:49.493Z,101083
2017-05-24T05:25:48.836Z,101078
2017-05-24T05:26:48.864Z,101088
2017-05-24T05:27:49.492Z,101088
2017-05-24T05:28:48.955Z,101091
2017-05-24T05:29:49.534Z,101088
2017-05-24T05:30:49.878Z,101091
2017-05-24T05:31:49.607Z,101093
2017-05-24T05:32:49.645Z,101087
2017-05-24T05:33:49.651Z,101093
2017-05-24T05:34:49.670Z,101090
2017-05-24T05:35:49.278Z,101081
2017-05-24T05:36:49.472Z,101086
2017-05-24T05:37:49.750Z,101075
2017-05-24T05:38:49.931Z,101077
2017-05-24T05:39:49.975Z,101074
2017-05-24T05:40:49.475Z,101082
2017-05-24T05:41:49.542Z,101089
2017-05-24T05:42:50.368Z,101093
2017-05-24T05:43:49.678Z,101090
2017-05-24T05:44:49.688Z,101099
2017-05-24T05:45:49.733Z,101102
2017-05-24T05:46:49.750Z,101096
2017-05-24T05:47:49.887Z,101104
2017-05-24T05:48:49.850Z,101102
2017-05-24T05:49:49.948Z,101102
2017-05-24T05:50:50.554Z,101092
2017-05-24T05:51:50.124Z,101095
2017-05-24T05:52:50.150Z,101092
2017-05-24T05:53:50.643Z,101097
2017-05-24T05:54:50.643Z,101102
2017-05-24T05:55:50.706Z,101095
2017-05-24T05:56:50.688Z,101093
2017-05-24T05:57:50.277Z,101100
2017-05-24T05:58:50.846Z,101100
2017-05-24T05:59:50.874Z,101103
2017-05-24T06:00:50.392Z,101102
2017-05-24T06:01:50.934Z,101095
2017-05-24T06:02:51.055Z,101089
2017-05-24T06:03:51.141Z,101098
2017-05-24T06:04:51.213Z,101095
2017-05-24T06:05:50.661Z,101094
2017-05-24T06:06:50.752Z,101093
2017-05-24T06:07:51.292Z,101090
2017-05-24T06:08:50.899Z,101087
2017-05-24T06:09:51.468Z,101086
2017-05-24T06:10:51.532Z,101089
2017-05-24T06:11:51.579Z,101085
2017-05-24T06:12:51.613Z,101078
2017-05-24T06:13:51.631Z,101078
2017-05-24T06:14:51.695Z,101089
2017-05-24T06:15:52.299Z,101085
2017-05-24T06:16:51.275Z,101087
2017-05-24T06:17:51.889Z,101085
2017-05-24T06:18:52.609Z,101090
2017-05-24T06:19:51.511Z,101085
2017-05-24T06:20:52.021Z,101077
2017-05-24T06:21:51.674Z,101083
2017-05-24T06:22:51.625Z,101096
2017-05-24T06:23:52.193Z,101099
2017-05-24T06:24:51.707Z,101098
2017-05-24T06:25:51.682Z,101093
2017-05-24T06:26:51.867Z,101096
2017-05-24T06:27:51.917Z,101095
2017-05-24T06:28:52.460Z,101099
2017-05-24T06:29:51.928Z,101098
2017-05-24T06:30:52.744Z,101100
2017-05-24T06:31:52.644Z,101101
2017-05-24T06:32:52.613Z,101100
2017-05-24T06:33:52.126Z,101105
2017-05-24T06:34:52.120Z,101096
2017-05-24T06:35:52.708Z,101095
2017-05-24T06:36:52.306Z,101107
2017-05-24T06:37:52.307Z,101099
2017-05-24T06:38:52.446Z,101107
2017-05-24T06:39:53.045Z,101107
2017-05-24T06:40:53.127Z,101110
2017-05-24T06:41:52.657Z,101111
2017-05-24T06:42:53.986Z,101113
2017-05-24T06:43:52.845Z,101109
2017-05-24T06:44:52.815Z,101116
2017-05-24T06:45:53.415Z,101114
2017-05-24T06:46:53.965Z,101112
2017-05-24T06:47:52.958Z,101114
2017-05-24T06:48:54.408Z,101120
2017-05-24T06:49:53.600Z,101119
2017-05-24T06:50:54.368Z,101120
2017-05-24T06:51:53.782Z,101123
2017-05-24T06:52:53.226Z,101118
2017-05-24T06:53:53.324Z,101120
2017-05-24T06:54:53.930Z,101119
2017-05-24T06:55:53.444Z,101121
2017-05-24T06:56:53.535Z,101123
2017-05-24T06:57:54.782Z,101120
2017-05-24T06:58:54.282Z,101116
2017-05-24T06:59:54.190Z,101122
2017-05-24T07:00:54.176Z,101136
2017-05-24T07:01:54.899Z,101136
2017-05-24T07:02:53.758Z,101137
2017-05-24T07:03:54.294Z,101137
2017-05-24T07:04:55.267Z,101136
2017-05-24T07:05:54.358Z,101135
2017-05-24T07:06:55.918Z,101138
2017-05-24T07:07:54.446Z,101132
2017-05-24T07:08:54.095Z,101128
2017-05-24T07:09:54.592Z,101128
2017-05-24T07:10:54.652Z,101136
2017-05-24T07:11:54.677Z,101130
2017-05-24T07:12:55.412Z,101133
2017-05-24T07:13:54.239Z,101135
2017-05-24T07:14:54.839Z,101126
2017-05-24T07:15:54.856Z,101139
2017-05-24T07:16:54.403Z,101136
2017-05-24T07:17:54.400Z,101135
2017-05-24T07:18:54.952Z,101134
2017-05-24T07:19:55.017Z,101134
2017-05-24T07:20:54.520Z,101123
2017-05-24T07:21:55.087Z,101135
2017-05-24T07:22:55.141Z,101134
2017-05-24T07:23:55.188Z,101131
2017-05-24T07:24:55.425Z,101136
2017-05-24T07:25:54.814Z,101141
2017-05-24T07:26:55.479Z,101137
2017-05-24T07:27:55.577Z,101139
2017-05-24T07:28:55.442Z,101137
2017-05-24T07:33:26.198Z,101131
2017-05-24T07:34:25.993Z,101123
2017-05-24T07:35:25.526Z,101134
2017-05-24T07:36:26.044Z,101135
2017-05-24T07:37:26.119Z,101127
2017-05-24T07:38:26.235Z,101135
2017-05-24T07:39:26.233Z,101132
2017-05-24T07:40:26.315Z,101124
2017-05-24T07:41:26.378Z,101130
2017-05-24T07:42:25.851Z,101136
2017-05-24T07:43:28.368Z,101126
2017-05-24T07:44:25.913Z,101139
2017-05-24T07:45:26.537Z,101142
2017-05-24T07:46:25.996Z,101145
2017-05-24T07:47:28.086Z,101146
2017-05-24T07:48:26.731Z,101149
2017-05-24T07:49:26.167Z,101153
2017-05-24T07:50:27.661Z,101157
2017-05-24T07:51:26.287Z,101157
2017-05-24T07:52:28.145Z,101150
2017-05-24T07:53:26.964Z,101150
2017-05-24T07:54:26.968Z,101147
2017-05-24T07:55:27.185Z,101155
2017-05-24T07:56:26.631Z,101154
2017-05-24T07:57:27.771Z,101148
2017-05-24T07:58:27.282Z,101156
2017-05-24T07:59:26.650Z,101152
2017-05-24T08:00:27.171Z,101154
2017-05-24T08:01:27.947Z,101147
2017-05-24T08:02:28.607Z,101148
2017-05-24T08:03:26.806Z,101152
2017-05-24T08:04:27.647Z,101145
2017-05-24T08:05:27.580Z,101158
2017-05-24T08:06:27.756Z,101157
2017-05-24T08:07:30.179Z,101156
2017-05-24T08:08:29.471Z,101159
2017-05-24T08:09:28.799Z,101153
2017-05-24T08:10:34.049Z,101157
2017-05-24T08:11:29.694Z,101158
2017-05-24T08:12:32.478Z,101155
2017-05-24T08:13:29.598Z,101161
2017-05-24T08:14:30.950Z,101165
2017-05-24T08:15:30.642Z,101167
2017-05-24T08:16:35.419Z,101162
2017-05-24T08:17:29.859Z,101165
2017-05-24T08:18:30.207Z,101160
2017-05-24T08:19:29.774Z,101159
2017-05-24T08:20:30.196Z,101153
2017-05-24T08:21:33.447Z,101155
2017-05-24T08:22:29.249Z,101165
2017-05-24T08:23:32.940Z,101158
2017-05-24T08:24:31.883Z,101159
2017-05-24T08:25:31.292Z,101151
2017-05-24T08:26:31.963Z,101158
2017-05-24T08:27:33.278Z,101151
2017-05-24T08:28:30.659Z,101152
2017-05-24T08:29:29.999Z,101157
2017-05-24T08:30:29.702Z,101158
2017-05-24T08:31:30.217Z,101158
2017-05-24T08:32:32.285Z,101157
2017-05-24T08:33:30.392Z,101153
2017-05-24T08:34:29.319Z,101155
2017-05-24T08:35:31.186Z,101155
2017-05-24T08:36:29.123Z,101159
2017-05-24T08:37:32.121Z,101160
2017-05-24T08:38:29.315Z,101158
2017-05-24T08:39:30.147Z,101162
2017-05-24T08:40:29.303Z,101157
2017-05-24T08:41:31.189Z,101161
2017-05-24T08:42:31.194Z,101158
2017-05-24T08:43:30.523Z,101151
2017-05-24T08:44:32.581Z,101153
2017-05-24T08:45:32.509Z,101149
2017-05-24T08:46:30.953Z,101149
2017-05-24T08:47:29.769Z,101148
2017-05-24T08:48:31.437Z,101152
2017-05-24T08:49:30.245Z,101148
2017-05-24T08:50:32.578Z,101148
2017-05-24T08:51:30.386Z,101149
2017-05-24T08:52:29.225Z,101148
2017-05-24T08:53:30.953Z,101143
2017-05-24T08:54:29.934Z,101149
2017-05-24T08:55:31.290Z,101147
2017-05-24T08:56:31.671Z,101147
2017-05-24T08:57:32.582Z,101151
2017-05-24T08:58:30.799Z,101149
2017-05-24T08:59:32.643Z,101145
2017-05-24T09:00:31.372Z,101141
2017-05-24T09:01:30.688Z,101144
2017-05-24T09:02:30.727Z,101144
2017-05-24T09:03:30.230Z,101144
2017-05-24T09:04:31.445Z,101145
2017-05-24T09:05:30.457Z,101140
2017-05-24T09:06:32.688Z,101142
2017-05-24T09:07:32.128Z,101134
2017-05-24T09:08:30.423Z,101131
2017-05-24T09:09:31.217Z,101138
2017-05-24T09:10:31.051Z,101137
2017-05-24T09:11:33.843Z,101143
2017-05-24T09:12:30.673Z,101141
2017-05-24T09:13:31.582Z,101139
2017-05-24T09:14:30.793Z,101142
2017-05-24T09:15:30.992Z,101142
2017-05-24T09:16:30.955Z,101139
2017-05-24T09:17:33.027Z,101137
2017-05-24T09:18:30.344Z,101134
2017-05-24T09:19:32.353Z,101135
2017-05-24T09:20:31.102Z,101128
2017-05-24T09:21:31.681Z,101128
2017-05-24T09:22:31.066Z,101130
2017-05-24T09:23:32.951Z,101123
2017-05-24T09:24:30.568Z,101118
2017-05-24T09:25:31.934Z,101115
2017-05-24T09:26:31.271Z,101120
2017-05-24T09:27:32.441Z,101112
2017-05-24T09:28:31.346Z,101109
2017-05-24T09:29:30.851Z,101114
2017-05-24T09:30:30.869Z,101111
2017-05-24T09:31:34.733Z,101111
2017-05-24T09:32:33.417Z,101110
2017-05-24T09:33:31.529Z,101106
2017-05-24T09:34:31.603Z,101108
2017-05-24T09:35:31.593Z,101106
2017-05-24T09:36:31.142Z,101110
2017-05-24T09:37:31.776Z,101113
2017-05-24T09:38:32.405Z,101115
2017-05-24T09:39:32.424Z,101113
2017-05-24T09:40:34.928Z,101113
2017-05-24T09:41:31.420Z,101118
2017-05-24T09:42:32.047Z,101118
2017-05-24T09:43:32.762Z,101120
2017-05-24T09:44:32.016Z,101120
2017-05-24T09:45:32.086Z,101119
2017-05-24T09:46:32.829Z,101112
2017-05-24T09:47:32.116Z,101117
2017-05-24T09:48:32.193Z,101117
2017-05-24T09:49:32.447Z,101111
2017-05-24T09:50:32.359Z,101113
2017-05-24T09:51:31.814Z,101109
2017-05-24T09:52:33.318Z,101107
2017-05-24T09:53:32.942Z,101106
2017-05-24T09:54:35.609Z,101103
2017-05-24T09:55:32.051Z,101104
2017-05-24T09:56:32.668Z,101101
2017-05-24T09:57:33.430Z,101099
2017-05-24T09:58:33.370Z,101094
2017-05-24T09:59:32.186Z,101099
2017-05-24T10:00:32.250Z,101098
2017-05-24T10:01:33.429Z,101097
2017-05-24T10:02:33.877Z,101099
2017-05-24T10:03:33.151Z,101102
2017-05-24T10:04:34.784Z,101106
2017-05-24T10:05:34.291Z,101099
2017-05-24T10:06:35.283Z,101104
2017-05-24T10:07:32.761Z,101101
2017-05-24T10:08:33.783Z,101098
2017-05-24T10:09:34.116Z,101105
2017-05-24T10:10:32.826Z,101106
2017-05-24T10:11:33.608Z,101100
2017-05-24T10:12:32.954Z,101103
2017-05-24T10:13:33.132Z,101103
2017-05-24T10:14:33.668Z,101102
2017-05-24T10:15:33.687Z,101104
2017-05-24T10:16:33.767Z,101097
2017-05-24T10:17:33.829Z,101101
2017-05-24T10:18:34.705Z,101102
2017-05-24T10:19:33.469Z,101101
2017-05-24T10:20:33.559Z,101103
2017-05-24T10:21:33.551Z,101102
2017-05-24T10:22:34.735Z,101102
2017-05-24T10:23:33.648Z,101101
2017-05-24T10:24:34.170Z,101098
2017-05-24T10:25:34.385Z,101095
2017-05-24T10:26:35.893Z,101097
2017-05-24T10:27:34.375Z,101100
2017-05-24T10:28:34.556Z,101092
2017-05-24T10:29:35.234Z,101099
2017-05-24T10:30:35.367Z,101098
2017-05-24T10:31:34.094Z,101100
2017-05-24T10:32:35.260Z,101096
2017-05-24T10:33:35.072Z,101096
2017-05-24T10:34:34.223Z,101100
2017-05-24T10:35:34.763Z,101096
2017-05-24T10:36:36.163Z,101095
2017-05-24T10:37:34.392Z,101102
2017-05-24T10:38:35.004Z,101102
2017-05-24T10:39:35.179Z,101099
2017-05-24T10:40:34.673Z,101102
2017-05-24T10:41:36.458Z,101097
2017-05-24T10:42:35.954Z,101098
2017-05-24T10:43:36.510Z,101101
2017-05-24T10:44:36.583Z,101100
2017-05-24T10:45:35.703Z,101101
2017-05-24T10:46:35.939Z,101105
2017-05-24T10:47:37.347Z,101103
2017-05-24T10:48:35.589Z,101105
2017-05-24T10:49:36.433Z,101104
2017-05-24T10:50:38.606Z,101105
2017-05-24T10:51:35.993Z,101104
2017-05-24T10:52:37.167Z,101105
2017-05-24T10:53:36.871Z,101105
2017-05-24T10:54:36.655Z,101109
2017-05-24T10:55:38.231Z,101112
2017-05-24T10:56:36.023Z,101110
2017-05-24T10:57:37.320Z,101107
2017-05-24T10:58:36.305Z,101102
2017-05-24T10:59:37.465Z,101107
2017-05-24T11:00:36.793Z,101107
2017-05-24T11:01:35.742Z,101098
2017-05-24T11:02:35.815Z,101099
2017-05-24T11:03:36.429Z,101096
2017-05-24T11:04:36.393Z,101098
2017-05-24T11:05:36.371Z,101100
2017-05-24T11:06:36.423Z,101089
2017-05-24T11:07:37.735Z,101093
2017-05-24T11:08:37.276Z,101087
2017-05-24T11:09:36.110Z,101080
2017-05-24T11:10:37.452Z,101086
2017-05-24T11:11:36.697Z,101086
2017-05-24T11:12:36.985Z,101079
2017-05-24T11:13:37.127Z,101082
2017-05-24T11:14:39.009Z,101085
2017-05-24T11:15:37.286Z,101083
2017-05-24T11:16:36.721Z,101084
2017-05-24T11:17:37.826Z,101085
2017-05-24T11:18:37.238Z,101087
2017-05-24T11:19:36.711Z,101084
2017-05-24T11:20:37.819Z,101083
2017-05-24T11:21:38.188Z,101084
2017-05-24T11:22:36.866Z,101075
2017-05-24T11:23:37.567Z,101079
2017-05-24T11:24:37.445Z,101073
2017-05-24T11:25:36.988Z,101079
2017-05-24T11:26:37.691Z,101078
2017-05-24T11:27:37.676Z,101077
2017-05-24T11:28:37.748Z,101072
2017-05-24T11:29:37.835Z,101070
2017-05-24T11:30:38.439Z,101074
2017-05-24T11:31:37.342Z,101071
2017-05-24T11:32:37.863Z,101068
2017-05-24T11:33:38.114Z,101070
2017-05-24T11:34:37.721Z,101070
2017-05-24T11:35:38.290Z,101073
2017-05-24T11:36:37.472Z,101070
2017-05-24T11:37:38.779Z,101068
2017-05-24T11:38:38.046Z,101069
2017-05-24T11:39:37.555Z,101065
2017-05-24T11:40:37.600Z,101069
2017-05-24T11:41:38.257Z,101068
2017-05-24T11:42:38.311Z,101073
2017-05-24T11:43:38.385Z,101072
2017-05-24T11:44:38.455Z,101068
2017-05-24T11:45:38.210Z,101067
2017-05-24T11:46:40.738Z,101066
2017-05-24T11:47:38.627Z,101073
2017-05-24T11:48:40.313Z,101072
2017-05-24T11:49:38.805Z,101071
2017-05-24T11:50:38.169Z,101071
2017-05-24T11:51:38.189Z,101069
2017-05-24T11:52:38.810Z,101066
2017-05-24T11:53:39.001Z,101064
2017-05-24T11:54:39.753Z,101069
2017-05-24T11:55:38.447Z,101061
2017-05-24T11:56:38.972Z,101061
2017-05-24T11:57:39.643Z,101072
2017-05-24T11:58:40.241Z,101068
2017-05-24T11:59:39.616Z,101064
2017-05-24T12:00:39.255Z,101058
2017-05-24T12:01:39.287Z,101060
2017-05-24T12:02:39.863Z,101064
2017-05-24T12:03:38.685Z,101060
2017-05-24T12:04:38.834Z,101065
2017-05-24T12:05:39.289Z,101063
2017-05-24T12:06:38.819Z,101061
2017-05-24T12:07:39.674Z,101064
2017-05-24T12:08:38.842Z,101061
2017-05-24T12:09:38.954Z,101062
2017-05-24T12:10:39.659Z,101064
2017-05-24T12:11:39.588Z,101060
2017-05-24T12:12:40.524Z,101065
2017-05-24T12:13:39.121Z,101065
2017-05-24T12:14:39.726Z,101060
2017-05-24T12:15:39.175Z,101059
2017-05-24T12:16:39.728Z,101059
2017-05-24T12:17:40.565Z,101063
2017-05-24T12:18:40.482Z,101065
2017-05-24T12:19:39.509Z,101065
2017-05-24T12:20:40.084Z,101063
2017-05-24T12:21:39.608Z,101064
2017-05-24T12:22:40.195Z,101057
2017-05-24T12:23:41.043Z,101065
2017-05-24T12:24:40.870Z,101067
2017-05-24T12:25:39.829Z,101070
2017-05-24T12:26:39.794Z,101069
2017-05-24T12:27:41.320Z,101066
2017-05-24T12:28:39.960Z,101070
2017-05-24T12:29:40.614Z,101062
2017-05-24T12:30:40.043Z,101071
2017-05-24T12:31:40.573Z,101069
2017-05-24T12:32:40.758Z,101072
2017-05-24T12:33:40.696Z,101067